sensor_id;sensor_type;location;lat;lon;timestamp;P1;durP1;ratioP1;P2;durP2;ratioP2
74044;SDS011;62389;51.412;5.436;2023-08-06T00:01:46;4.25;;;2.47;;
74044;SDS011;62389;51.412;5.436;2023-08-06T00:04:11;6.40;;;2.72;;
74044;SDS011;62389;51.412;5.436;2023-08-06T00:06:37;5.70;;;2.30;;
74044;SDS011;62389;51.412;5.436;2023-08-06T00:09:02;6.65;;;2.58;;
74044;SDS011;62389;51.412;5.436;2023-08-06T00:11:28;4.72;;;2.00;;
74044;SDS011;62389;51.412;5.436;2023-08-06T00:13:53;4.88;;;2.40;;
74044;SDS011;62389;51.412;5.436;2023-08-06T00:16:18;4.85;;;2.30;;
74044;SDS011;62389;51.412;5.436;2023-08-06T00:18:44;3.38;;;1.88;;
74044;SDS011;62389;51.412;5.436;2023-08-06T00:21:09;4.32;;;2.28;;
74044;SDS011;62389;51.412;5.436;2023-08-06T00:23:34;6.13;;;2.50;;
74044;SDS011;62389;51.412;5.436;2023-08-06T00:26:00;6.18;;;2.40;;
74044;SDS011;62389;51.412;5.436;2023-08-06T00:28:25;5.30;;;1.92;;
74044;SDS011;62389;51.412;5.436;2023-08-06T00:30:53;3.95;;;2.20;;
74044;SDS011;62389;51.412;5.436;2023-08-06T00:33:24;4.93;;;2.67;;
74044;SDS011;62389;51.412;5.436;2023-08-06T00:35:50;4.50;;;2.25;;
74044;SDS011;62389;51.412;5.436;2023-08-06T00:38:15;5.57;;;2.92;;
74044;SDS011;62389;51.412;5.436;2023-08-06T00:40:41;4.40;;;2.53;;
74044;SDS011;62389;51.412;5.436;2023-08-06T00:43:06;5.18;;;2.13;;
74044;SDS011;62389;51.412;5.436;2023-08-06T00:45:35;4.75;;;2.30;;
74044;SDS011;62389;51.412;5.436;2023-08-06T00:48:02;5.03;;;2.10;;
74044;SDS011;62389;51.412;5.436;2023-08-06T00:50:30;4.75;;;2.40;;
74044;SDS011;62389;51.412;5.436;2023-08-06T00:52:55;5.43;;;2.25;;
74044;SDS011;62389;51.412;5.436;2023-08-06T00:55:21;4.22;;;2.13;;
74044;SDS011;62389;51.412;5.436;2023-08-06T00:57:47;4.50;;;2.50;;
74044;SDS011;62389;51.412;5.436;2023-08-06T01:00:12;6.03;;;2.40;;
74044;SDS011;62389;51.412;5.436;2023-08-06T01:02:38;5.25;;;2.08;;
74044;SDS011;62389;51.412;5.436;2023-08-06T01:05:04;4.57;;;1.90;;
74044;SDS011;62389;51.412;5.436;2023-08-06T01:13:08;4.72;;;2.40;;
74044;SDS011;62389;51.412;5.436;2023-08-06T01:15:43;5.28;;;1.98;;
74044;SDS011;62389;51.412;5.436;2023-08-06T01:18:16;4.85;;;1.90;;
74044;SDS011;62389;51.412;5.436;2023-08-06T01:20:41;6.25;;;2.80;;
74044;SDS011;62389;51.412;5.436;2023-08-06T01:23:06;4.57;;;2.00;;
74044;SDS011;62389;51.412;5.436;2023-08-06T01:28:44;4.32;;;1.90;;
74044;SDS011;62389;51.412;5.436;2023-08-06T01:31:15;4.20;;;2.10;;
74044;SDS011;62389;51.412;5.436;2023-08-06T01:33:49;4.13;;;2.00;;
74044;SDS011;62389;51.412;5.436;2023-08-06T01:36:16;4.43;;;2.00;;
74044;SDS011;62389;51.412;5.436;2023-08-06T01:38:43;4.55;;;1.70;;
74044;SDS011;62389;51.412;5.436;2023-08-06T01:41:08;5.95;;;2.03;;
74044;SDS011;62389;51.412;5.436;2023-08-06T01:43:34;6.32;;;1.90;;
74044;SDS011;62389;51.412;5.436;2023-08-06T01:45:59;3.67;;;1.55;;
74044;SDS011;62389;51.412;5.436;2023-08-06T01:48:24;4.32;;;1.77;;
74044;SDS011;62389;51.412;5.436;2023-08-06T01:50:50;4.45;;;1.67;;
74044;SDS011;62389;51.412;5.436;2023-08-06T01:53:15;2.85;;;1.75;;
74044;SDS011;62389;51.412;5.436;2023-08-06T01:55:40;4.57;;;1.67;;
74044;SDS011;62389;51.412;5.436;2023-08-06T01:58:06;4.88;;;1.70;;
74044;SDS011;62389;51.412;5.436;2023-08-06T02:00:31;3.45;;;1.60;;
74044;SDS011;62389;51.412;5.436;2023-08-06T02:02:56;7.50;;;1.98;;
74044;SDS011;62389;51.412;5.436;2023-08-06T02:05:22;3.65;;;1.67;;
74044;SDS011;62389;51.412;5.436;2023-08-06T02:07:47;3.17;;;1.75;;
74044;SDS011;62389;51.412;5.436;2023-08-06T02:10:12;3.53;;;1.48;;
74044;SDS011;62389;51.412;5.436;2023-08-06T02:12:38;3.95;;;1.60;;
74044;SDS011;62389;51.412;5.436;2023-08-06T02:15:03;5.50;;;1.50;;
74044;SDS011;62389;51.412;5.436;2023-08-06T02:17:29;3.05;;;1.75;;
74044;SDS011;62389;51.412;5.436;2023-08-06T02:19:54;3.08;;;1.55;;
74044;SDS011;62389;51.412;5.436;2023-08-06T02:22:20;6.38;;;1.77;;
74044;SDS011;62389;51.412;5.436;2023-08-06T02:24:45;3.58;;;1.55;;
74044;SDS011;62389;51.412;5.436;2023-08-06T02:27:11;4.80;;;1.63;;
74044;SDS011;62389;51.412;5.436;2023-08-06T02:29:36;6.20;;;1.80;;
74044;SDS011;62389;51.412;5.436;2023-08-06T02:32:01;4.10;;;1.63;;
74044;SDS011;62389;51.412;5.436;2023-08-06T02:34:27;4.28;;;1.88;;
74044;SDS011;62389;51.412;5.436;2023-08-06T02:36:53;2.58;;;1.55;;
74044;SDS011;62389;51.412;5.436;2023-08-06T02:39:18;3.53;;;1.58;;
74044;SDS011;62389;51.412;5.436;2023-08-06T02:41:44;4.72;;;1.65;;
74044;SDS011;62389;51.412;5.436;2023-08-06T02:44:09;5.45;;;1.63;;
74044;SDS011;62389;51.412;5.436;2023-08-06T02:46:34;3.83;;;1.60;;
74044;SDS011;62389;51.412;5.436;2023-08-06T02:49:00;6.80;;;1.95;;
74044;SDS011;62389;51.412;5.436;2023-08-06T02:51:25;4.18;;;1.80;;
74044;SDS011;62389;51.412;5.436;2023-08-06T02:53:50;4.65;;;1.70;;
74044;SDS011;62389;51.412;5.436;2023-08-06T02:56:16;5.05;;;1.80;;
74044;SDS011;62389;51.412;5.436;2023-08-06T02:58:41;4.32;;;1.52;;
74044;SDS011;62389;51.412;5.436;2023-08-06T03:01:07;4.30;;;1.85;;
74044;SDS011;62389;51.412;5.436;2023-08-06T03:03:32;4.00;;;1.95;;
74044;SDS011;62389;51.412;5.436;2023-08-06T03:05:58;4.75;;;2.00;;
74044;SDS011;62389;51.412;5.436;2023-08-06T03:08:23;3.83;;;2.15;;
74044;SDS011;62389;51.412;5.436;2023-08-06T03:10:49;4.63;;;1.67;;
74044;SDS011;62389;51.412;5.436;2023-08-06T03:13:16;5.07;;;2.10;;
74044;SDS011;62389;51.412;5.436;2023-08-06T03:15:42;3.60;;;2.03;;
74044;SDS011;62389;51.412;5.436;2023-08-06T03:18:07;4.28;;;1.75;;
74044;SDS011;62389;51.412;5.436;2023-08-06T03:20:33;5.43;;;2.25;;
74044;SDS011;62389;51.412;5.436;2023-08-06T03:22:58;4.13;;;2.00;;
74044;SDS011;62389;51.412;5.436;2023-08-06T03:25:23;5.82;;;2.90;;
74044;SDS011;62389;51.412;5.436;2023-08-06T03:27:49;6.10;;;2.50;;
74044;SDS011;62389;51.412;5.436;2023-08-06T03:30:15;6.63;;;2.10;;
74044;SDS011;62389;51.412;5.436;2023-08-06T03:32:40;3.78;;;2.08;;
74044;SDS011;62389;51.412;5.436;2023-08-06T03:35:05;6.18;;;2.50;;
74044;SDS011;62389;51.412;5.436;2023-08-06T03:37:31;4.85;;;2.50;;
74044;SDS011;62389;51.412;5.436;2023-08-06T03:39:56;5.50;;;2.35;;
74044;SDS011;62389;51.412;5.436;2023-08-06T03:42:22;4.55;;;2.28;;
74044;SDS011;62389;51.412;5.436;2023-08-06T03:44:47;5.78;;;2.40;;
74044;SDS011;62389;51.412;5.436;2023-08-06T03:47:13;5.03;;;2.67;;
74044;SDS011;62389;51.412;5.436;2023-08-06T03:49:38;5.95;;;2.83;;
74044;SDS011;62389;51.412;5.436;2023-08-06T03:52:04;5.85;;;2.60;;
74044;SDS011;62389;51.412;5.436;2023-08-06T03:54:30;5.28;;;3.30;;
74044;SDS011;62389;51.412;5.436;2023-08-06T03:56:55;5.22;;;2.40;;
74044;SDS011;62389;51.412;5.436;2023-08-06T03:59:21;4.97;;;2.90;;
74044;SDS011;62389;51.412;5.436;2023-08-06T04:01:46;4.95;;;2.65;;
74044;SDS011;62389;51.412;5.436;2023-08-06T04:04:12;8.48;;;2.85;;
74044;SDS011;62389;51.412;5.436;2023-08-06T04:06:37;6.38;;;2.85;;
74044;SDS011;62389;51.412;5.436;2023-08-06T04:09:03;7.22;;;2.85;;
74044;SDS011;62389;51.412;5.436;2023-08-06T04:11:28;5.68;;;2.92;;
74044;SDS011;62389;51.412;5.436;2023-08-06T04:13:53;4.40;;;2.58;;
74044;SDS011;62389;51.412;5.436;2023-08-06T04:16:20;5.30;;;3.38;;
74044;SDS011;62389;51.412;5.436;2023-08-06T04:18:46;6.47;;;3.05;;
74044;SDS011;62389;51.412;5.436;2023-08-06T04:21:11;4.43;;;2.60;;
74044;SDS011;62389;51.412;5.436;2023-08-06T04:23:37;8.57;;;2.50;;
74044;SDS011;62389;51.412;5.436;2023-08-06T04:26:02;6.22;;;2.90;;
74044;SDS011;62389;51.412;5.436;2023-08-06T04:28:27;9.70;;;3.10;;
74044;SDS011;62389;51.412;5.436;2023-08-06T04:30:53;7.18;;;3.15;;
74044;SDS011;62389;51.412;5.436;2023-08-06T04:33:18;5.30;;;2.72;;
74044;SDS011;62389;51.412;5.436;2023-08-06T04:35:44;4.30;;;2.70;;
74044;SDS011;62389;51.412;5.436;2023-08-06T04:38:10;5.15;;;3.00;;
74044;SDS011;62389;51.412;5.436;2023-08-06T04:40:35;4.13;;;2.65;;
74044;SDS011;62389;51.412;5.436;2023-08-06T04:43:01;5.47;;;2.63;;
74044;SDS011;62389;51.412;5.436;2023-08-06T04:45:26;6.60;;;2.40;;
74044;SDS011;62389;51.412;5.436;2023-08-06T04:47:52;4.35;;;2.70;;
74044;SDS011;62389;51.412;5.436;2023-08-06T04:50:18;4.20;;;2.28;;
74044;SDS011;62389;51.412;5.436;2023-08-06T04:52:44;6.97;;;2.72;;
74044;SDS011;62389;51.412;5.436;2023-08-06T04:55:10;5.00;;;2.75;;
74044;SDS011;62389;51.412;5.436;2023-08-06T04:57:35;5.65;;;2.95;;
74044;SDS011;62389;51.412;5.436;2023-08-06T05:00:00;5.15;;;3.42;;
74044;SDS011;62389;51.412;5.436;2023-08-06T05:02:26;5.65;;;3.00;;
74044;SDS011;62389;51.412;5.436;2023-08-06T05:04:51;6.88;;;3.20;;
74044;SDS011;62389;51.412;5.436;2023-08-06T05:07:17;7.18;;;3.22;;
74044;SDS011;62389;51.412;5.436;2023-08-06T05:09:42;6.57;;;3.20;;
74044;SDS011;62389;51.412;5.436;2023-08-06T05:12:07;5.88;;;2.95;;
74044;SDS011;62389;51.412;5.436;2023-08-06T05:14:34;7.43;;;2.97;;
74044;SDS011;62389;51.412;5.436;2023-08-06T05:16:59;6.18;;;3.05;;
74044;SDS011;62389;51.412;5.436;2023-08-06T05:19:27;7.80;;;3.35;;
74044;SDS011;62389;51.412;5.436;2023-08-06T05:21:52;8.25;;;3.03;;
74044;SDS011;62389;51.412;5.436;2023-08-06T05:24:18;6.53;;;3.03;;
74044;SDS011;62389;51.412;5.436;2023-08-06T05:26:43;6.40;;;3.30;;
74044;SDS011;62389;51.412;5.436;2023-08-06T05:29:11;7.97;;;3.40;;
74044;SDS011;62389;51.412;5.436;2023-08-06T05:31:37;3.88;;;2.63;;
74044;SDS011;62389;51.412;5.436;2023-08-06T05:34:02;6.25;;;3.30;;
74044;SDS011;62389;51.412;5.436;2023-08-06T05:36:28;7.45;;;3.70;;
74044;SDS011;62389;51.412;5.436;2023-08-06T05:38:53;6.90;;;3.38;;
74044;SDS011;62389;51.412;5.436;2023-08-06T05:41:18;6.43;;;3.53;;
74044;SDS011;62389;51.412;5.436;2023-08-06T05:43:44;7.90;;;3.67;;
74044;SDS011;62389;51.412;5.436;2023-08-06T05:46:10;8.23;;;3.97;;
74044;SDS011;62389;51.412;5.436;2023-08-06T05:48:35;9.95;;;4.63;;
74044;SDS011;62389;51.412;5.436;2023-08-06T05:51:01;7.03;;;4.28;;
74044;SDS011;62389;51.412;5.436;2023-08-06T05:53:26;8.00;;;4.13;;
74044;SDS011;62389;51.412;5.436;2023-08-06T05:55:51;6.90;;;4.22;;
74044;SDS011;62389;51.412;5.436;2023-08-06T05:58:17;6.80;;;3.50;;
74044;SDS011;62389;51.412;5.436;2023-08-06T06:00:42;5.93;;;3.55;;
74044;SDS011;62389;51.412;5.436;2023-08-06T06:03:08;7.13;;;3.40;;
74044;SDS011;62389;51.412;5.436;2023-08-06T06:05:33;6.32;;;3.80;;
74044;SDS011;62389;51.412;5.436;2023-08-06T06:07:59;7.68;;;3.35;;
74044;SDS011;62389;51.412;5.436;2023-08-06T06:10:24;5.97;;;3.42;;
74044;SDS011;62389;51.412;5.436;2023-08-06T06:12:50;8.38;;;3.90;;
74044;SDS011;62389;51.412;5.436;2023-08-06T06:15:15;6.80;;;3.78;;
74044;SDS011;62389;51.412;5.436;2023-08-06T06:17:40;8.20;;;3.40;;
74044;SDS011;62389;51.412;5.436;2023-08-06T06:20:06;7.68;;;4.03;;
74044;SDS011;62389;51.412;5.436;2023-08-06T06:22:32;7.28;;;3.67;;
74044;SDS011;62389;51.412;5.436;2023-08-06T06:24:57;4.55;;;2.85;;
74044;SDS011;62389;51.412;5.436;2023-08-06T06:27:23;4.88;;;3.17;;
74044;SDS011;62389;51.412;5.436;2023-08-06T06:29:48;6.28;;;3.58;;
74044;SDS011;62389;51.412;5.436;2023-08-06T06:32:13;6.53;;;3.40;;
74044;SDS011;62389;51.412;5.436;2023-08-06T06:34:39;6.05;;;3.70;;
74044;SDS011;62389;51.412;5.436;2023-08-06T06:37:04;6.13;;;3.30;;
74044;SDS011;62389;51.412;5.436;2023-08-06T06:39:30;5.22;;;3.20;;
74044;SDS011;62389;51.412;5.436;2023-08-06T06:41:55;7.28;;;3.67;;
74044;SDS011;62389;51.412;5.436;2023-08-06T06:44:20;7.90;;;3.10;;
74044;SDS011;62389;51.412;5.436;2023-08-06T06:46:46;7.72;;;2.92;;
74044;SDS011;62389;51.412;5.436;2023-08-06T06:49:11;3.53;;;2.00;;
74044;SDS011;62389;51.412;5.436;2023-08-06T06:51:37;2.35;;;1.00;;
74044;SDS011;62389;51.412;5.436;2023-08-06T06:54:02;2.35;;;1.05;;
74044;SDS011;62389;51.412;5.436;2023-08-06T06:56:27;1.85;;;1.00;;
74044;SDS011;62389;51.412;5.436;2023-08-06T06:58:53;1.67;;;1.00;;
74044;SDS011;62389;51.412;5.436;2023-08-06T07:01:18;2.47;;;1.50;;
74044;SDS011;62389;51.412;5.436;2023-08-06T07:03:44;3.15;;;1.40;;
74044;SDS011;62389;51.412;5.436;2023-08-06T07:06:09;3.08;;;1.40;;
74044;SDS011;62389;51.412;5.436;2023-08-06T07:08:34;3.08;;;1.70;;
74044;SDS011;62389;51.412;5.436;2023-08-06T07:11:03;2.38;;;1.50;;
74044;SDS011;62389;51.412;5.436;2023-08-06T07:13:30;3.17;;;1.85;;
74044;SDS011;62389;51.412;5.436;2023-08-06T07:15:56;2.85;;;1.55;;
74044;SDS011;62389;51.412;5.436;2023-08-06T07:18:21;2.60;;;1.60;;
74044;SDS011;62389;51.412;5.436;2023-08-06T07:20:50;3.72;;;1.70;;
74044;SDS011;62389;51.412;5.436;2023-08-06T07:23:16;5.30;;;2.00;;
74044;SDS011;62389;51.412;5.436;2023-08-06T07:25:43;4.55;;;2.25;;
74044;SDS011;62389;51.412;5.436;2023-08-06T07:28:09;3.05;;;1.73;;
74044;SDS011;62389;51.412;5.436;2023-08-06T07:33:03;3.17;;;2.08;;
74044;SDS011;62389;51.412;5.436;2023-08-06T07:35:28;3.90;;;1.85;;
74044;SDS011;62389;51.412;5.436;2023-08-06T07:37:54;4.07;;;1.83;;
74044;SDS011;62389;51.412;5.436;2023-08-06T07:40:19;3.78;;;2.10;;
74044;SDS011;62389;51.412;5.436;2023-08-06T07:42:45;4.45;;;2.50;;
74044;SDS011;62389;51.412;5.436;2023-08-06T07:45:10;4.28;;;2.80;;
74044;SDS011;62389;51.412;5.436;2023-08-06T07:47:36;5.10;;;2.55;;
74044;SDS011;62389;51.412;5.436;2023-08-06T07:50:01;5.40;;;2.47;;
74044;SDS011;62389;51.412;5.436;2023-08-06T07:52:27;4.45;;;2.10;;
74044;SDS011;62389;51.412;5.436;2023-08-06T07:54:52;4.63;;;2.83;;
74044;SDS011;62389;51.412;5.436;2023-08-06T07:57:18;4.82;;;2.60;;
74044;SDS011;62389;51.412;5.436;2023-08-06T07:59:43;4.50;;;2.63;;
74044;SDS011;62389;51.412;5.436;2023-08-06T08:02:08;4.07;;;3.25;;
74044;SDS011;62389;51.412;5.436;2023-08-06T08:04:34;6.22;;;3.10;;
74044;SDS011;62389;51.412;5.436;2023-08-06T08:06:59;4.90;;;2.85;;
74044;SDS011;62389;51.412;5.436;2023-08-06T08:09:25;5.25;;;2.50;;
74044;SDS011;62389;51.412;5.436;2023-08-06T08:11:50;5.80;;;2.70;;
74044;SDS011;62389;51.412;5.436;2023-08-06T08:14:15;4.28;;;2.55;;
74044;SDS011;62389;51.412;5.436;2023-08-06T08:16:41;4.97;;;2.58;;
74044;SDS011;62389;51.412;5.436;2023-08-06T08:19:06;5.15;;;2.75;;
74044;SDS011;62389;51.412;5.436;2023-08-06T08:21:32;3.97;;;2.42;;
74044;SDS011;62389;51.412;5.436;2023-08-06T08:23:59;6.10;;;2.13;;
74044;SDS011;62389;51.412;5.436;2023-08-06T08:26:25;5.15;;;2.25;;
74044;SDS011;62389;51.412;5.436;2023-08-06T08:28:52;6.95;;;2.33;;
74044;SDS011;62389;51.412;5.436;2023-08-06T08:31:18;4.22;;;2.22;;
74044;SDS011;62389;51.412;5.436;2023-08-06T08:33:43;5.47;;;2.20;;
74044;SDS011;62389;51.412;5.436;2023-08-06T08:36:09;4.28;;;1.80;;
74044;SDS011;62389;51.412;5.436;2023-08-06T08:38:35;4.25;;;1.85;;
74044;SDS011;62389;51.412;5.436;2023-08-06T08:41:00;5.15;;;2.20;;
74044;SDS011;62389;51.412;5.436;2023-08-06T08:43:26;5.25;;;2.05;;
74044;SDS011;62389;51.412;5.436;2023-08-06T08:45:52;4.68;;;2.05;;
74044;SDS011;62389;51.412;5.436;2023-08-06T08:48:25;6.88;;;2.22;;
74044;SDS011;62389;51.412;5.436;2023-08-06T08:50:52;5.00;;;2.05;;
74044;SDS011;62389;51.412;5.436;2023-08-06T08:53:18;7.18;;;2.60;;
74044;SDS011;62389;51.412;5.436;2023-08-06T08:55:46;7.88;;;2.40;;
74044;SDS011;62389;51.412;5.436;2023-08-06T08:58:12;8.02;;;2.17;;
74044;SDS011;62389;51.412;5.436;2023-08-06T09:00:38;6.40;;;1.95;;
74044;SDS011;62389;51.412;5.436;2023-08-06T09:03:06;3.30;;;1.83;;
74044;SDS011;62389;51.412;5.436;2023-08-06T09:05:33;5.28;;;2.10;;
74044;SDS011;62389;51.412;5.436;2023-08-06T09:08:02;5.57;;;2.20;;
74044;SDS011;62389;51.412;5.436;2023-08-06T09:10:28;5.03;;;2.13;;
74044;SDS011;62389;51.412;5.436;2023-08-06T09:12:53;5.38;;;2.22;;
74044;SDS011;62389;51.412;5.436;2023-08-06T09:15:23;6.35;;;2.33;;
74044;SDS011;62389;51.412;5.436;2023-08-06T09:17:50;6.63;;;2.15;;
74044;SDS011;62389;51.412;5.436;2023-08-06T09:20:15;4.65;;;2.30;;
74044;SDS011;62389;51.412;5.436;2023-08-06T09:22:41;3.35;;;2.10;;
74044;SDS011;62389;51.412;5.436;2023-08-06T09:25:07;5.45;;;2.30;;
74044;SDS011;62389;51.412;5.436;2023-08-06T09:27:38;7.47;;;1.80;;
74044;SDS011;62389;51.412;5.436;2023-08-06T09:30:05;4.95;;;1.88;;
74044;SDS011;62389;51.412;5.436;2023-08-06T09:32:45;5.63;;;1.80;;
74044;SDS011;62389;51.412;5.436;2023-08-06T09:35:16;6.22;;;1.90;;
74044;SDS011;62389;51.412;5.436;2023-08-06T09:37:42;5.63;;;2.60;;
74044;SDS011;62389;51.412;5.436;2023-08-06T09:40:29;6.80;;;2.25;;
74044;SDS011;62389;51.412;5.436;2023-08-06T09:42:56;6.45;;;1.90;;
74044;SDS011;62389;51.412;5.436;2023-08-06T09:45:22;5.80;;;2.45;;
74044;SDS011;62389;51.412;5.436;2023-08-06T09:47:49;6.22;;;1.75;;
74044;SDS011;62389;51.412;5.436;2023-08-06T09:50:18;6.38;;;2.00;;
74044;SDS011;62389;51.412;5.436;2023-08-06T09:52:44;6.85;;;1.75;;
74044;SDS011;62389;51.412;5.436;2023-08-06T09:55:13;5.40;;;2.10;;
74044;SDS011;62389;51.412;5.436;2023-08-06T09:57:42;5.00;;;2.55;;
74044;SDS011;62389;51.412;5.436;2023-08-06T10:00:11;7.35;;;2.08;;
74044;SDS011;62389;51.412;5.436;2023-08-06T10:02:37;5.30;;;1.70;;
74044;SDS011;62389;51.412;5.436;2023-08-06T10:05:04;4.30;;;1.95;;
74044;SDS011;62389;51.412;5.436;2023-08-06T10:07:30;8.65;;;2.00;;
74044;SDS011;62389;51.412;5.436;2023-08-06T10:09:55;13.40;;;2.80;;
74044;SDS011;62389;51.412;5.436;2023-08-06T10:12:21;9.60;;;2.22;;
74044;SDS011;62389;51.412;5.436;2023-08-06T10:14:49;6.00;;;2.03;;
74044;SDS011;62389;51.412;5.436;2023-08-06T10:17:19;5.32;;;1.90;;
74044;SDS011;62389;51.412;5.436;2023-08-06T10:19:46;6.25;;;2.05;;
74044;SDS011;62389;51.412;5.436;2023-08-06T10:22:14;8.20;;;2.47;;
74044;SDS011;62389;51.412;5.436;2023-08-06T10:32:59;4.22;;;1.52;;
74044;SDS011;62389;51.412;5.436;2023-08-06T10:35:29;6.70;;;2.00;;
74044;SDS011;62389;51.412;5.436;2023-08-06T10:37:58;7.30;;;1.88;;
74044;SDS011;62389;51.412;5.436;2023-08-06T10:40:39;7.03;;;2.15;;
74044;SDS011;62389;51.412;5.436;2023-08-06T10:43:05;6.38;;;1.70;;
74044;SDS011;62389;51.412;5.436;2023-08-06T10:45:35;6.43;;;1.92;;
74044;SDS011;62389;51.412;5.436;2023-08-06T10:48:03;7.05;;;2.00;;
74044;SDS011;62389;51.412;5.436;2023-08-06T10:50:29;8.30;;;2.05;;
74044;SDS011;62389;51.412;5.436;2023-08-06T10:52:56;3.15;;;1.80;;
74044;SDS011;62389;51.412;5.436;2023-08-06T10:55:22;9.10;;;2.10;;
74044;SDS011;62389;51.412;5.436;2023-08-06T10:57:52;5.40;;;2.50;;
74044;SDS011;62389;51.412;5.436;2023-08-06T11:00:18;7.03;;;2.08;;
74044;SDS011;62389;51.412;5.436;2023-08-06T11:02:46;6.38;;;2.33;;
74044;SDS011;62389;51.412;5.436;2023-08-06T11:07:38;5.07;;;2.15;;
74044;SDS011;62389;51.412;5.436;2023-08-06T11:10:07;5.15;;;2.83;;
74044;SDS011;62389;51.412;5.436;2023-08-06T11:12:34;7.03;;;2.17;;
74044;SDS011;62389;51.412;5.436;2023-08-06T11:15:00;7.65;;;2.30;;
74044;SDS011;62389;51.412;5.436;2023-08-06T11:17:27;6.00;;;2.13;;
74044;SDS011;62389;51.412;5.436;2023-08-06T11:19:53;8.70;;;2.90;;
74044;SDS011;62389;51.412;5.436;2023-08-06T11:22:20;7.25;;;2.40;;
74044;SDS011;62389;51.412;5.436;2023-08-06T11:24:45;8.68;;;1.98;;
74044;SDS011;62389;51.412;5.436;2023-08-06T11:27:14;5.80;;;2.08;;
74044;SDS011;62389;51.412;5.436;2023-08-06T11:29:41;5.97;;;1.73;;
74044;SDS011;62389;51.412;5.436;2023-08-06T11:32:08;4.38;;;1.80;;
74044;SDS011;62389;51.412;5.436;2023-08-06T11:34:34;4.53;;;1.80;;
74044;SDS011;62389;51.412;5.436;2023-08-06T11:37:02;9.43;;;2.20;;
74044;SDS011;62389;51.412;5.436;2023-08-06T11:39:30;4.45;;;1.80;;
74044;SDS011;62389;51.412;5.436;2023-08-06T11:41:59;4.78;;;1.48;;
74044;SDS011;62389;51.412;5.436;2023-08-06T11:44:31;10.93;;;2.30;;
74044;SDS011;62389;51.412;5.436;2023-08-06T11:46:58;8.68;;;2.08;;
74044;SDS011;62389;51.412;5.436;2023-08-06T11:52:17;4.55;;;1.77;;
74044;SDS011;62389;51.412;5.436;2023-08-06T11:54:45;3.22;;;1.70;;
74044;SDS011;62389;51.412;5.436;2023-08-06T11:57:24;7.15;;;2.00;;
74044;SDS011;62389;51.412;5.436;2023-08-06T11:59:50;4.47;;;1.80;;
74044;SDS011;62389;51.412;5.436;2023-08-06T12:02:15;4.80;;;1.52;;
74044;SDS011;62389;51.412;5.436;2023-08-06T12:07:29;6.32;;;2.08;;
74044;SDS011;62389;51.412;5.436;2023-08-06T12:09:55;5.32;;;2.22;;
74044;SDS011;62389;51.412;5.436;2023-08-06T12:12:21;5.95;;;1.88;;
74044;SDS011;62389;51.412;5.436;2023-08-06T12:14:46;2.88;;;1.48;;
74044;SDS011;62389;51.412;5.436;2023-08-06T12:17:12;4.32;;;1.13;;
74044;SDS011;62389;51.412;5.436;2023-08-06T12:19:37;4.43;;;1.20;;
74044;SDS011;62389;51.412;5.436;2023-08-06T12:22:02;4.35;;;1.35;;
74044;SDS011;62389;51.412;5.436;2023-08-06T12:24:28;4.65;;;1.95;;
74044;SDS011;62389;51.412;5.436;2023-08-06T12:26:56;3.63;;;1.08;;
74044;SDS011;62389;51.412;5.436;2023-08-06T12:29:25;5.32;;;1.17;;
74044;SDS011;62389;51.412;5.436;2023-08-06T12:31:51;4.07;;;1.40;;
74044;SDS011;62389;51.412;5.436;2023-08-06T12:34:16;4.43;;;1.30;;
74044;SDS011;62389;51.412;5.436;2023-08-06T12:36:41;3.75;;;1.30;;
74044;SDS011;62389;51.412;5.436;2023-08-06T12:39:07;4.28;;;1.23;;
74044;SDS011;62389;51.412;5.436;2023-08-06T12:41:32;5.72;;;1.17;;
74044;SDS011;62389;51.412;5.436;2023-08-06T12:43:58;3.95;;;0.90;;
74044;SDS011;62389;51.412;5.436;2023-08-06T12:46:23;3.85;;;1.15;;
74044;SDS011;62389;51.412;5.436;2023-08-06T12:48:48;4.43;;;1.20;;
74044;SDS011;62389;51.412;5.436;2023-08-06T12:51:14;2.15;;;1.02;;
74044;SDS011;62389;51.412;5.436;2023-08-06T12:53:39;2.70;;;1.02;;
74044;SDS011;62389;51.412;5.436;2023-08-06T12:56:04;4.63;;;1.00;;
74044;SDS011;62389;51.412;5.436;2023-08-06T12:58:30;4.10;;;1.05;;
74044;SDS011;62389;51.412;5.436;2023-08-06T13:00:55;3.75;;;1.00;;
74044;SDS011;62389;51.412;5.436;2023-08-06T13:03:21;5.13;;;1.60;;
74044;SDS011;62389;51.412;5.436;2023-08-06T13:05:46;6.57;;;0.93;;
74044;SDS011;62389;51.412;5.436;2023-08-06T13:08:12;4.18;;;0.80;;
74044;SDS011;62389;51.412;5.436;2023-08-06T13:10:37;5.40;;;1.10;;
74044;SDS011;62389;51.412;5.436;2023-08-06T13:13:02;4.70;;;0.90;;
74044;SDS011;62389;51.412;5.436;2023-08-06T13:15:28;5.40;;;1.00;;
74044;SDS011;62389;51.412;5.436;2023-08-06T13:17:54;3.00;;;0.77;;
74044;SDS011;62389;51.412;5.436;2023-08-06T13:20:19;6.90;;;1.25;;
74044;SDS011;62389;51.412;5.436;2023-08-06T13:22:45;5.15;;;1.23;;
74044;SDS011;62389;51.412;5.436;2023-08-06T13:25:11;4.28;;;1.13;;
74044;SDS011;62389;51.412;5.436;2023-08-06T13:27:39;5.00;;;1.15;;
74044;SDS011;62389;51.412;5.436;2023-08-06T13:30:04;2.90;;;0.80;;
74044;SDS011;62389;51.412;5.436;2023-08-06T13:32:31;6.45;;;1.13;;
74044;SDS011;62389;51.412;5.436;2023-08-06T13:34:57;3.42;;;0.98;;
74044;SDS011;62389;51.412;5.436;2023-08-06T13:37:23;5.60;;;1.10;;
74044;SDS011;62389;51.412;5.436;2023-08-06T13:39:48;5.40;;;1.40;;
74044;SDS011;62389;51.412;5.436;2023-08-06T13:42:13;4.90;;;1.15;;
74044;SDS011;62389;51.412;5.436;2023-08-06T13:44:39;3.90;;;0.85;;
74044;SDS011;62389;51.412;5.436;2023-08-06T13:47:04;3.78;;;1.05;;
74044;SDS011;62389;51.412;5.436;2023-08-06T13:49:30;3.28;;;0.90;;
74044;SDS011;62389;51.412;5.436;2023-08-06T13:51:55;8.65;;;2.08;;
74044;SDS011;62389;51.412;5.436;2023-08-06T13:54:20;5.32;;;1.08;;
74044;SDS011;62389;51.412;5.436;2023-08-06T13:56:46;3.65;;;1.00;;
74044;SDS011;62389;51.412;5.436;2023-08-06T13:59:11;2.67;;;1.10;;
74044;SDS011;62389;51.412;5.436;2023-08-06T14:01:38;2.97;;;0.80;;
74044;SDS011;62389;51.412;5.436;2023-08-06T14:04:03;4.88;;;1.20;;
74044;SDS011;62389;51.412;5.436;2023-08-06T14:06:29;2.05;;;0.82;;
74044;SDS011;62389;51.412;5.436;2023-08-06T14:08:55;4.57;;;1.00;;
74044;SDS011;62389;51.412;5.436;2023-08-06T14:11:21;4.00;;;1.00;;
74044;SDS011;62389;51.412;5.436;2023-08-06T14:13:46;9.80;;;1.40;;
74044;SDS011;62389;51.412;5.436;2023-08-06T14:16:12;2.85;;;1.08;;
74044;SDS011;62389;51.412;5.436;2023-08-06T14:18:37;4.65;;;1.40;;
74044;SDS011;62389;51.412;5.436;2023-08-06T14:21:03;4.05;;;1.00;;
74044;SDS011;62389;51.412;5.436;2023-08-06T14:23:29;3.90;;;1.00;;
74044;SDS011;62389;51.412;5.436;2023-08-06T14:25:54;4.82;;;1.30;;
74044;SDS011;62389;51.412;5.436;2023-08-06T14:28:19;3.72;;;1.23;;
74044;SDS011;62389;51.412;5.436;2023-08-06T14:30:45;4.18;;;1.00;;
74044;SDS011;62389;51.412;5.436;2023-08-06T14:33:10;5.45;;;1.23;;
74044;SDS011;62389;51.412;5.436;2023-08-06T14:35:36;5.68;;;1.25;;
74044;SDS011;62389;51.412;5.436;2023-08-06T14:38:01;4.43;;;1.25;;
74044;SDS011;62389;51.412;5.436;2023-08-06T14:40:26;2.97;;;1.17;;
74044;SDS011;62389;51.412;5.436;2023-08-06T14:42:58;2.45;;;1.10;;
74044;SDS011;62389;51.412;5.436;2023-08-06T14:45:24;4.25;;;1.42;;
74044;SDS011;62389;51.412;5.436;2023-08-06T14:47:49;3.90;;;1.17;;
74044;SDS011;62389;51.412;5.436;2023-08-06T14:50:14;6.00;;;1.50;;
74044;SDS011;62389;51.412;5.436;2023-08-06T14:52:40;5.90;;;1.40;;
74044;SDS011;62389;51.412;5.436;2023-08-06T14:55:05;3.17;;;1.20;;
74044;SDS011;62389;51.412;5.436;2023-08-06T14:57:31;2.78;;;1.20;;
74044;SDS011;62389;51.412;5.436;2023-08-06T14:59:56;3.08;;;1.25;;
74044;SDS011;62389;51.412;5.436;2023-08-06T15:02:22;5.30;;;1.40;;
74044;SDS011;62389;51.412;5.436;2023-08-06T15:04:47;6.65;;;1.77;;
74044;SDS011;62389;51.412;5.436;2023-08-06T15:07:13;4.63;;;1.77;;
74044;SDS011;62389;51.412;5.436;2023-08-06T15:09:38;3.60;;;1.30;;